createdAt,value
2017-08-24T00:02:15.027Z,23.61
2017-08-24T00:04:42.642Z,23.61
2017-08-24T00:07:10.231Z,23.64
2017-08-24T00:09:37.871Z,23.66
2017-08-24T00:12:05.470Z,23.65
2017-08-24T00:14:33.107Z,23.56
2017-08-24T00:17:00.691Z,23.44
2017-08-24T00:19:28.310Z,23.43
2017-08-24T00:21:55.918Z,23.49
2017-08-24T00:24:23.553Z,23.42
2017-08-24T00:26:51.186Z,23.41
2017-08-24T00:29:18.783Z,23.41
2017-08-24T00:31:46.409Z,23.36
2017-08-24T00:34:14.039Z,23.38
2017-08-24T00:36:41.664Z,23.39
2017-08-24T00:39:09.313Z,23.40
2017-08-24T00:41:36.911Z,23.34
2017-08-24T00:44:04.522Z,23.35
2017-08-24T00:46:32.168Z,23.36
2017-08-24T00:48:59.759Z,23.34
2017-08-24T00:51:27.459Z,23.31
2017-08-24T00:53:55.058Z,23.25
2017-08-24T00:56:22.693Z,23.22
2017-08-24T00:58:50.315Z,23.23
2017-08-24T01:01:17.951Z,23.23
2017-08-24T01:03:45.604Z,23.09
2017-08-24T01:06:13.218Z,22.98
2017-08-24T01:08:40.819Z,22.96
2017-08-24T01:11:08.463Z,22.91
2017-08-24T01:13:36.063Z,22.89
2017-08-24T01:16:03.663Z,22.91
2017-08-24T01:18:31.306Z,22.93
2017-08-24T01:20:58.886Z,22.84
2017-08-24T01:23:26.498Z,22.67
2017-08-24T01:25:54.090Z,22.65
2017-08-24T01:28:21.700Z,22.56
2017-08-24T01:30:49.302Z,22.52
2017-08-24T01:33:16.922Z,22.40
2017-08-24T01:35:44.527Z,22.28
2017-08-24T01:38:12.222Z,22.27
2017-08-24T01:40:39.810Z,22.15
2017-08-24T01:43:07.444Z,22.11
2017-08-24T01:45:35.039Z,22.01
2017-08-24T01:48:02.654Z,22.00
2017-08-24T01:50:30.265Z,21.85
2017-08-24T01:52:57.890Z,21.72
2017-08-24T01:55:25.481Z,21.66
2017-08-24T01:57:53.106Z,21.71
2017-08-24T02:00:20.795Z,21.67
2017-08-24T02:02:48.437Z,21.60
2017-08-24T02:05:16.059Z,21.59
2017-08-24T02:07:43.659Z,21.49
2017-08-24T02:10:11.282Z,21.48
2017-08-24T02:12:38.946Z,21.37
2017-08-24T02:15:06.584Z,21.40
2017-08-24T02:17:34.171Z,21.36
2017-08-24T02:20:01.785Z,21.23
2017-08-24T02:22:29.389Z,21.17
2017-08-24T02:24:57.011Z,21.12
2017-08-24T02:27:24.653Z,21.15
2017-08-24T02:29:52.259Z,21.07
2017-08-24T02:32:19.866Z,21.04
2017-08-24T02:34:47.494Z,21.01
2017-08-24T02:37:15.083Z,20.93
2017-08-24T02:39:42.750Z,20.90
2017-08-24T02:42:10.348Z,20.89
2017-08-24T02:44:37.982Z,20.86
2017-08-24T02:47:05.574Z,20.85
2017-08-24T02:49:33.202Z,20.79
2017-08-24T02:52:00.801Z,20.68
2017-08-24T02:54:28.526Z,20.64
2017-08-24T02:56:56.125Z,20.57
2017-08-24T02:59:23.750Z,20.64
2017-08-24T03:01:51.375Z,20.59
2017-08-24T03:04:18.970Z,20.58
2017-08-24T03:06:46.642Z,20.55
2017-08-24T03:09:14.262Z,20.45
2017-08-24T03:11:41.851Z,20.28
2017-08-24T03:14:09.443Z,20.32
2017-08-24T03:16:37.070Z,20.35
2017-08-24T03:19:04.666Z,20.37
2017-08-24T03:21:32.279Z,20.41
2017-08-24T03:23:59.896Z,20.31
2017-08-24T03:26:27.510Z,20.29
2017-08-24T03:28:55.127Z,20.25
2017-08-24T03:31:22.750Z,20.36
2017-08-24T03:33:50.346Z,20.29
2017-08-24T03:36:17.984Z,20.18
2017-08-24T03:38:45.579Z,20.13
2017-08-24T03:41:13.283Z,20.11
2017-08-24T03:43:40.869Z,20.14
2017-08-24T03:46:08.486Z,20.12
2017-08-24T03:48:36.082Z,20.12
2017-08-24T03:51:03.704Z,20.03
2017-08-24T03:53:31.295Z,20.08
2017-08-24T03:55:58.926Z,20.03
2017-08-24T03:58:26.510Z,19.92
2017-08-24T04:00:54.181Z,19.90
2017-08-24T04:03:21.862Z,19.87
2017-08-24T04:05:49.493Z,19.92
2017-08-24T04:08:17.097Z,19.92
2017-08-24T04:10:44.715Z,19.84
2017-08-24T04:13:12.303Z,19.80
2017-08-24T04:15:39.949Z,19.68
2017-08-24T04:18:07.546Z,19.75
2017-08-24T04:20:35.167Z,19.81
2017-08-24T04:23:02.764Z,19.70
2017-08-24T04:25:30.387Z,19.64
2017-08-24T04:27:57.983Z,19.64
2017-08-24T04:30:25.618Z,19.72
2017-08-24T04:32:53.238Z,19.75
2017-08-24T04:35:20.891Z,19.74
2017-08-24T04:37:48.499Z,19.68
2017-08-24T04:40:16.116Z,19.68
2017-08-24T04:42:43.917Z,19.65
2017-08-24T04:45:11.529Z,19.67
2017-08-24T04:47:39.258Z,19.66
2017-08-24T04:50:06.906Z,19.67
2017-08-24T04:52:34.498Z,19.62
2017-08-24T04:55:02.126Z,19.64
2017-08-24T04:57:29.722Z,19.57
2017-08-24T04:59:57.366Z,19.52
2017-08-24T05:02:24.970Z,19.58
2017-08-24T05:04:52.610Z,19.61
2017-08-24T05:07:20.263Z,19.63
2017-08-24T05:09:47.891Z,19.67
2017-08-24T05:12:15.490Z,19.68
2017-08-24T05:14:43.192Z,19.75
2017-08-24T05:17:10.795Z,19.69
2017-08-24T05:19:38.406Z,19.46
2017-08-24T05:22:06.042Z,19.50
2017-08-24T05:24:33.651Z,19.55
2017-08-24T05:27:01.288Z,19.53
2017-08-24T05:29:28.914Z,19.41
2017-08-24T05:31:56.546Z,19.34
2017-08-24T05:34:24.195Z,19.34
2017-08-24T05:36:51.771Z,19.39
2017-08-24T05:39:19.370Z,19.46
2017-08-24T05:41:47.041Z,19.49
2017-08-24T05:44:14.634Z,19.52
2017-08-24T05:46:42.286Z,19.50
2017-08-24T05:49:09.888Z,19.54
2017-08-24T05:51:37.511Z,19.43
2017-08-24T05:54:05.107Z,19.49
2017-08-24T05:56:32.740Z,19.40
2017-08-24T05:59:00.336Z,19.38
2017-08-24T06:01:27.998Z,19.38
2017-08-24T06:03:55.600Z,19.44
2017-08-24T06:06:23.218Z,19.28
2017-08-24T06:08:50.878Z,19.19
2017-08-24T06:11:18.517Z,19.20
2017-08-24T06:13:46.121Z,19.28
2017-08-24T06:16:14.452Z,19.23
2017-08-24T06:18:42.086Z,19.23
2017-08-24T06:21:09.738Z,19.17
2017-08-24T06:23:37.332Z,19.21
2017-08-24T06:26:05.490Z,19.20
2017-08-24T06:28:33.118Z,19.23
2017-08-24T06:31:01.202Z,19.26
2017-08-24T06:33:28.847Z,19.18
2017-08-24T06:35:56.450Z,19.22
2017-08-24T06:38:24.100Z,19.26
2017-08-24T06:40:51.702Z,19.42
2017-08-24T06:43:19.368Z,19.44
2017-08-24T06:45:46.970Z,19.53
2017-08-24T06:48:14.606Z,19.57
2017-08-24T06:50:42.211Z,19.53
2017-08-24T06:53:09.854Z,19.58
2017-08-24T06:55:37.502Z,19.60
2017-08-24T06:58:05.156Z,19.60
2017-08-24T07:00:32.793Z,19.62
2017-08-24T07:03:00.407Z,19.62
2017-08-24T07:05:28.042Z,19.56
2017-08-24T07:07:55.633Z,19.54
2017-08-24T07:10:23.291Z,19.57
2017-08-24T07:12:50.882Z,19.59
2017-08-24T07:15:18.503Z,19.63
2017-08-24T07:17:46.226Z,19.69
2017-08-24T07:20:13.963Z,19.67
2017-08-24T07:22:41.587Z,19.77
2017-08-24T07:25:09.207Z,19.85
2017-08-24T07:27:36.818Z,19.75
2017-08-24T07:30:04.422Z,19.79
2017-08-24T07:32:32.042Z,19.80
2017-08-24T07:34:59.641Z,19.85
2017-08-24T07:37:27.362Z,19.95
2017-08-24T07:39:54.994Z,19.99
2017-08-24T07:42:22.610Z,19.95
2017-08-24T07:44:50.210Z,20.01
2017-08-24T07:47:17.878Z,19.98
2017-08-24T07:49:45.487Z,19.95
2017-08-24T07:52:13.095Z,20.01
2017-08-24T07:54:40.724Z,20.05
2017-08-24T07:57:08.318Z,20.09
2017-08-24T07:59:35.955Z,20.09
2017-08-24T08:02:03.546Z,20.12
2017-08-24T08:04:31.171Z,20.22
2017-08-24T08:06:58.771Z,20.30
2017-08-24T08:09:26.394Z,20.31
2017-08-24T08:11:54.026Z,20.42
2017-08-24T08:14:21.687Z,20.43
2017-08-24T08:16:49.287Z,20.45
2017-08-24T08:19:16.914Z,20.43
2017-08-24T08:21:44.514Z,20.34
2017-08-24T08:24:12.170Z,20.44
2017-08-24T08:26:39.782Z,20.59
2017-08-24T08:29:07.390Z,20.60
2017-08-24T08:31:35.014Z,20.53
2017-08-24T08:34:02.606Z,20.56
2017-08-24T08:36:30.251Z,20.67
2017-08-24T08:38:57.864Z,20.67
2017-08-24T08:41:25.503Z,20.67
2017-08-24T08:43:53.127Z,20.64
2017-08-24T08:46:20.770Z,20.74
2017-08-24T08:48:48.419Z,20.80
2017-08-24T08:51:16.051Z,20.77
2017-08-24T08:53:43.656Z,20.74
2017-08-24T08:56:11.279Z,20.74
2017-08-24T08:58:38.871Z,20.76
2017-08-24T09:01:06.487Z,20.86
2017-08-24T09:03:34.103Z,20.82
2017-08-24T09:06:01.717Z,20.87
2017-08-24T09:08:29.339Z,20.95
2017-08-24T09:10:56.968Z,21.10
2017-08-24T09:13:24.563Z,21.25
2017-08-24T09:15:52.165Z,21.27
2017-08-24T09:18:19.782Z,21.31
2017-08-24T09:20:47.394Z,21.34
2017-08-24T09:23:15.019Z,21.24
2017-08-24T09:25:42.616Z,21.22
2017-08-24T09:28:10.237Z,21.32
2017-08-24T09:30:37.830Z,21.38
2017-08-24T09:33:05.463Z,21.47
2017-08-24T09:35:33.068Z,21.38
2017-08-24T09:38:00.689Z,21.28
2017-08-24T09:40:28.362Z,21.22
2017-08-24T09:42:55.979Z,21.19
2017-08-24T09:45:23.598Z,21.16
2017-08-24T09:47:51.214Z,21.36
2017-08-24T09:50:18.813Z,21.37
2017-08-24T09:52:46.448Z,21.38
2017-08-24T09:55:14.036Z,21.28
2017-08-24T09:57:41.669Z,21.28
2017-08-24T10:00:09.267Z,21.36
2017-08-24T10:02:36.888Z,21.41
2017-08-24T10:05:04.470Z,21.48
2017-08-24T10:07:32.095Z,21.46
2017-08-24T10:09:59.750Z,21.46
2017-08-24T10:12:27.388Z,21.50
2017-08-24T10:14:54.995Z,21.54
2017-08-24T10:17:22.582Z,21.55
2017-08-24T10:19:50.191Z,21.51
2017-08-24T10:22:17.811Z,21.62
2017-08-24T10:24:45.422Z,21.61
2017-08-24T10:27:13.028Z,21.59
2017-08-24T10:29:40.725Z,21.61
2017-08-24T10:32:08.270Z,21.78
2017-08-24T10:34:35.922Z,21.99
2017-08-24T10:37:03.518Z,21.90
2017-08-24T10:39:31.159Z,21.85
2017-08-24T10:41:58.766Z,22.11
2017-08-24T10:44:28.111Z,22.62
2017-08-24T10:46:55.711Z,22.40
2017-08-24T10:49:23.323Z,22.24
2017-08-24T10:51:50.933Z,22.28
2017-08-24T10:54:18.595Z,22.63
2017-08-24T10:56:46.183Z,23.07
2017-08-24T10:59:13.790Z,23.22
2017-08-24T11:01:41.419Z,23.00
2017-08-24T11:04:09.013Z,22.61
2017-08-24T11:06:36.668Z,22.50
2017-08-24T11:09:04.255Z,22.36
2017-08-24T11:11:31.892Z,22.25
2017-08-24T11:13:59.494Z,22.22
2017-08-24T11:16:27.122Z,22.46
2017-08-24T11:18:54.754Z,22.47
2017-08-24T11:21:22.384Z,22.51
2017-08-24T11:23:49.982Z,22.57
2017-08-24T11:26:17.643Z,22.86
2017-08-24T11:28:45.239Z,23.15
2017-08-24T11:31:12.875Z,23.07
2017-08-24T11:33:40.546Z,22.94
2017-08-24T11:36:08.166Z,23.31
2017-08-24T11:38:35.767Z,23.32
2017-08-24T11:41:03.407Z,23.45
2017-08-24T11:43:31.027Z,23.79
2017-08-24T11:45:58.642Z,23.95
2017-08-24T11:48:26.235Z,23.84
2017-08-24T11:50:53.822Z,23.56
2017-08-24T11:53:21.424Z,23.43
2017-08-24T11:55:49.078Z,23.52
2017-08-24T11:58:16.697Z,23.97
2017-08-24T12:00:44.351Z,24.32
2017-08-24T12:03:11.950Z,24.67
2017-08-24T12:05:39.679Z,25.11
2017-08-24T12:08:07.280Z,25.47
2017-08-24T12:10:34.930Z,25.63
2017-08-24T12:13:02.538Z,25.67
2017-08-24T12:15:30.127Z,25.84
2017-08-24T12:17:57.786Z,25.83
2017-08-24T12:20:25.387Z,26.00
2017-08-24T12:22:53.010Z,26.28
2017-08-24T12:25:20.611Z,26.00
2017-08-24T12:27:48.239Z,25.97
2017-08-24T12:30:15.838Z,25.73
2017-08-24T12:32:43.549Z,25.85
2017-08-24T12:35:11.146Z,26.07
2017-08-24T12:37:38.771Z,26.07
2017-08-24T12:40:06.362Z,26.07
2017-08-24T12:42:33.986Z,26.13
2017-08-24T12:45:01.585Z,26.67
2017-08-24T12:47:29.219Z,26.89
2017-08-24T12:49:56.823Z,26.62
2017-08-24T12:52:24.467Z,26.47
2017-08-24T12:54:52.094Z,26.65
2017-08-24T12:57:19.686Z,26.36
2017-08-24T12:59:47.315Z,26.63
2017-08-24T13:02:14.969Z,27.06
2017-08-24T13:04:42.599Z,26.69
2017-08-24T13:07:10.198Z,26.67
2017-08-24T13:09:37.818Z,26.84
2017-08-24T13:12:05.411Z,26.66
2017-08-24T13:14:33.060Z,26.84
2017-08-24T13:17:00.659Z,26.76
2017-08-24T13:19:28.289Z,27.06
2017-08-24T13:21:55.882Z,27.15
2017-08-24T13:24:23.563Z,27.39
2017-08-24T13:26:51.171Z,27.53
2017-08-24T13:29:18.806Z,27.60
2017-08-24T13:31:46.416Z,27.56
2017-08-24T13:34:14.011Z,27.33
2017-08-24T13:36:41.650Z,27.04
2017-08-24T13:39:09.251Z,26.86
2017-08-24T13:41:36.903Z,26.76
2017-08-24T13:44:04.506Z,27.20
2017-08-24T13:46:32.151Z,27.08
2017-08-24T13:48:59.752Z,27.18
2017-08-24T13:51:27.402Z,27.62
2017-08-24T13:53:55.011Z,27.86
2017-08-24T13:56:22.677Z,27.68
2017-08-24T13:58:50.278Z,27.84
2017-08-24T14:01:17.919Z,28.04
2017-08-24T14:03:45.530Z,27.96
2017-08-24T14:06:13.150Z,28.05
2017-08-24T14:08:40.746Z,28.15
2017-08-24T14:11:08.383Z,28.11
2017-08-24T14:13:35.997Z,27.60
2017-08-24T14:16:03.634Z,27.51
2017-08-24T14:18:31.236Z,27.54
2017-08-24T14:20:58.849Z,27.46
2017-08-24T14:23:26.522Z,27.79
2017-08-24T14:25:54.155Z,28.04
2017-08-24T14:28:21.746Z,27.81
2017-08-24T14:30:49.390Z,27.27
2017-08-24T14:33:16.978Z,26.66
2017-08-24T14:35:44.606Z,26.94
2017-08-24T14:38:12.230Z,26.88
2017-08-24T14:40:39.841Z,27.19
2017-08-24T14:43:07.474Z,27.27
2017-08-24T14:45:35.058Z,27.04
2017-08-24T14:48:02.684Z,26.63
2017-08-24T14:50:30.282Z,26.40
2017-08-24T14:52:57.904Z,26.06
2017-08-24T14:55:25.524Z,25.97
2017-08-24T14:57:53.204Z,26.28
2017-08-24T15:00:20.804Z,26.85
2017-08-24T15:02:48.447Z,27.49
2017-08-24T15:05:16.042Z,27.60
2017-08-24T15:07:43.664Z,27.15
2017-08-24T15:10:11.267Z,26.57
2017-08-24T15:12:39.010Z,26.55
2017-08-24T15:15:06.600Z,26.81
2017-08-24T15:17:34.215Z,27.14
2017-08-24T15:20:01.803Z,27.31
2017-08-24T15:22:29.445Z,27.39
2017-08-24T15:24:57.039Z,27.78
2017-08-24T15:27:24.686Z,28.02
2017-08-24T15:29:52.299Z,28.11
2017-08-24T15:32:19.935Z,28.09
2017-08-24T15:34:47.570Z,27.85
2017-08-24T15:37:15.167Z,27.84
2017-08-24T15:39:42.798Z,28.21
2017-08-24T15:42:10.430Z,28.35
2017-08-24T15:44:38.059Z,28.52
2017-08-24T15:47:05.662Z,28.47
2017-08-24T15:49:33.286Z,28.27
2017-08-24T15:52:00.894Z,28.16
2017-08-24T15:54:28.524Z,28.15
2017-08-24T15:56:56.119Z,27.59
2017-08-24T15:59:23.751Z,27.34
2017-08-24T16:01:51.362Z,27.53
2017-08-24T16:04:18.992Z,27.46
2017-08-24T16:06:46.598Z,27.24
2017-08-24T16:09:14.242Z,27.02
2017-08-24T16:11:41.847Z,27.07
2017-08-24T16:14:09.538Z,27.23
2017-08-24T16:16:37.139Z,26.97
2017-08-24T16:19:04.764Z,26.97
2017-08-24T16:21:32.358Z,27.09
2017-08-24T16:24:00.003Z,26.88
2017-08-24T16:26:27.615Z,26.92
2017-08-24T16:28:55.256Z,27.06
2017-08-24T16:31:22.854Z,26.86
2017-08-24T16:33:50.514Z,26.56
2017-08-24T16:36:18.114Z,26.62
2017-08-24T16:38:45.797Z,26.82
2017-08-24T16:41:13.394Z,26.79
2017-08-24T16:43:41.030Z,26.64
2017-08-24T16:46:08.623Z,26.49
2017-08-24T16:48:36.258Z,26.16
2017-08-24T16:51:03.878Z,25.99
2017-08-24T16:53:31.514Z,25.94
2017-08-24T16:55:59.149Z,26.04
2017-08-24T16:58:26.791Z,26.01
2017-08-24T17:00:54.391Z,26.02
2017-08-24T17:03:22.026Z,26.09
2017-08-24T17:05:49.629Z,26.14
2017-08-24T17:08:17.255Z,26.12
2017-08-24T17:10:44.888Z,26.04
2017-08-24T17:13:12.507Z,26.12
2017-08-24T17:15:40.134Z,25.92
2017-08-24T17:18:07.812Z,25.83
2017-08-24T17:20:35.419Z,25.80
2017-08-24T17:23:03.052Z,25.76
2017-08-24T17:25:30.658Z,25.62
2017-08-24T17:27:58.278Z,25.52
2017-08-24T17:30:25.872Z,25.45
2017-08-24T17:32:53.527Z,25.45
2017-08-24T17:35:21.114Z,25.45
2017-08-24T17:37:48.743Z,25.44
2017-08-24T17:40:16.343Z,25.29
2017-08-24T17:42:43.974Z,25.08
2017-08-24T17:45:11.654Z,25.07
2017-08-24T17:47:39.311Z,25.05
2017-08-24T17:50:06.953Z,25.09
2017-08-24T17:52:34.567Z,24.98
2017-08-24T17:55:02.387Z,24.94
2017-08-24T17:57:30.002Z,24.94
2017-08-24T17:59:57.693Z,24.89
2017-08-24T18:02:25.307Z,24.95
2017-08-24T18:04:52.922Z,24.97
2017-08-24T18:07:20.523Z,24.92
2017-08-24T18:09:48.186Z,24.85
2017-08-24T18:12:15.810Z,24.78
2017-08-24T18:14:43.426Z,24.71
2017-08-24T18:17:11.036Z,24.73
2017-08-24T18:19:38.696Z,24.70
2017-08-24T18:22:06.314Z,24.64
2017-08-24T18:24:33.951Z,24.58
2017-08-24T18:27:01.571Z,24.48
2017-08-24T18:29:29.221Z,24.41
2017-08-24T18:31:56.862Z,24.41
2017-08-24T18:34:24.508Z,24.38
2017-08-24T18:36:52.124Z,24.37
2017-08-24T18:39:19.767Z,24.41
2017-08-24T18:41:47.378Z,24.44
2017-08-24T18:44:15.083Z,24.36
2017-08-24T18:46:42.679Z,24.27
2017-08-24T18:49:10.302Z,24.31
2017-08-24T18:51:38.030Z,24.26
2017-08-24T18:54:05.684Z,24.32
2017-08-24T18:56:33.316Z,24.31
2017-08-24T18:59:00.955Z,24.34
2017-08-24T19:01:28.604Z,24.36
2017-08-24T19:03:56.278Z,24.39
2017-08-24T19:06:23.887Z,24.36
2017-08-24T19:08:51.552Z,24.31
2017-08-24T19:11:19.180Z,24.21
2017-08-24T19:13:46.911Z,24.11
2017-08-24T19:16:14.618Z,24.12
2017-08-24T19:18:42.207Z,24.12
2017-08-24T19:21:09.832Z,24.16
2017-08-24T19:23:37.487Z,24.18
2017-08-24T19:26:05.096Z,24.19
2017-08-24T19:28:32.698Z,24.22
2017-08-24T19:31:00.351Z,24.22
2017-08-24T19:33:27.946Z,24.20
2017-08-24T19:35:55.590Z,24.18
2017-08-24T19:38:23.158Z,24.01
2017-08-24T19:40:50.806Z,23.88
2017-08-24T19:43:18.450Z,23.85
2017-08-24T19:45:46.092Z,23.83
2017-08-24T19:48:13.690Z,23.77
2017-08-24T19:50:41.342Z,23.82
2017-08-24T19:53:08.950Z,23.85
2017-08-24T19:55:36.584Z,23.86
2017-08-24T19:58:04.183Z,23.87
2017-08-24T20:00:31.886Z,23.85
2017-08-24T20:02:59.506Z,23.80
2017-08-24T20:05:27.171Z,23.79
2017-08-24T20:07:54.776Z,23.80
2017-08-24T20:10:22.385Z,23.78
2017-08-24T20:12:50.032Z,23.75
2017-08-24T20:15:17.681Z,23.73
2017-08-24T20:17:45.309Z,23.65
2017-08-24T20:20:12.907Z,23.61
2017-08-24T20:22:40.627Z,23.55
2017-08-24T20:25:08.278Z,23.54
2017-08-24T20:27:35.958Z,23.53
2017-08-24T20:30:03.599Z,23.51
2017-08-24T20:32:31.201Z,23.48
2017-08-24T20:34:58.838Z,23.41
2017-08-24T20:37:26.434Z,23.35
2017-08-24T20:39:54.082Z,23.30
2017-08-24T20:42:21.702Z,23.33
2017-08-24T20:44:49.358Z,23.27
2017-08-24T20:47:16.954Z,23.20
2017-08-24T20:49:44.603Z,23.19
2017-08-24T20:52:12.203Z,23.13
2017-08-24T20:54:39.850Z,23.07
2017-08-24T20:57:07.531Z,23.05
2017-08-24T20:59:35.126Z,23.00
2017-08-24T21:02:02.760Z,22.98
2017-08-24T21:04:30.397Z,22.45
2017-08-24T21:06:58.002Z,22.14
2017-08-24T21:09:25.703Z,22.14
2017-08-24T21:11:53.301Z,22.25
2017-08-24T21:14:20.889Z,22.32
2017-08-24T21:16:48.514Z,22.28
2017-08-24T21:19:16.108Z,22.24
2017-08-24T21:21:43.835Z,22.19
2017-08-24T21:24:11.436Z,22.16
2017-08-24T21:26:39.059Z,22.26
2017-08-24T21:29:06.691Z,22.33
2017-08-24T21:31:34.294Z,22.42
2017-08-24T21:34:01.895Z,22.51
2017-08-24T21:36:29.670Z,22.57
2017-08-24T21:38:57.295Z,22.55
2017-08-24T21:41:25.107Z,22.41
2017-08-24T21:43:52.708Z,22.20
2017-08-24T21:46:20.408Z,22.14
2017-08-24T21:48:48.017Z,22.07
2017-08-24T21:51:15.635Z,22.00
2017-08-24T21:53:43.230Z,21.95
2017-08-24T21:56:10.857Z,21.76
2017-08-24T21:58:38.474Z,21.47
2017-08-24T22:01:06.188Z,21.29
2017-08-24T22:03:33.821Z,21.09
2017-08-24T22:06:01.555Z,20.94
2017-08-24T22:08:29.219Z,20.85
2017-08-24T22:10:56.903Z,20.85
2017-08-24T22:13:24.503Z,20.95
2017-08-24T22:15:52.120Z,21.12
2017-08-24T22:18:19.717Z,21.21
2017-08-24T22:20:47.355Z,21.25
2017-08-24T22:23:14.963Z,20.99
2017-08-24T22:25:42.591Z,20.88
2017-08-24T22:28:10.187Z,20.97
2017-08-24T22:30:37.823Z,21.02
2017-08-24T22:33:05.562Z,21.07
2017-08-24T22:35:33.171Z,21.13
2017-08-24T22:38:00.761Z,21.11
2017-08-24T22:40:28.394Z,21.01
2017-08-24T22:42:56.003Z,20.92
2017-08-24T22:45:23.631Z,20.88
2017-08-24T22:47:51.251Z,20.80
2017-08-24T22:50:18.875Z,20.77
2017-08-24T22:52:46.478Z,20.69
2017-08-24T22:55:19.615Z,20.54
2017-08-24T22:57:52.746Z,20.53
2017-08-24T23:00:26.031Z,20.65
2017-08-24T23:02:59.268Z,20.73
2017-08-24T23:05:26.899Z,20.81
2017-08-24T23:07:54.637Z,20.85
2017-08-24T23:10:22.259Z,20.88
2017-08-24T23:12:49.846Z,20.71
2017-08-24T23:15:17.500Z,20.71
2017-08-24T23:17:45.106Z,20.63
2017-08-24T23:20:12.699Z,20.53
2017-08-24T23:22:40.341Z,20.50
2017-08-24T23:25:08.003Z,20.51
2017-08-24T23:27:35.731Z,20.50
2017-08-24T23:30:03.330Z,20.41
2017-08-24T23:32:30.970Z,20.33
2017-08-24T23:34:58.734Z,20.22
2017-08-24T23:37:26.582Z,20.22
2017-08-24T23:39:54.186Z,20.17
2017-08-24T23:42:21.822Z,20.16
2017-08-24T23:44:49.426Z,20.21
2017-08-24T23:47:17.171Z,20.21
2017-08-24T23:49:44.774Z,20.26
2017-08-24T23:52:12.515Z,20.33
2017-08-24T23:54:40.283Z,20.35
2017-08-24T23:57:08.008Z,20.23
2017-08-24T23:59:35.625Z,19.97
